• Join FlightAware (Why Join?)
  • Login
  • US Flag 
03:15AM EDT


 

Airport Tracker/Info


-or-


 

Live Flight TrackerFlight Track Log ✈ JBU676 ✈ 22-Apr-2012 ✈ KLAX - KJFK

Flight Track Log - Related Links

Times and Time Zones

All times are in EDT time to prevent confusion due to time zone crossing. See the JBU676 flight status page for this flight to view local times or setup timezone preferences in your user account.

Time Position Orientation Groundspeed Altitude Reporting Facility
EDT Latitude Longitude Course Direction KTS MPH feet Rate Location/Type
12:07AM 33.9500 -118.4667 214° Southwest 165 190 1,700  Level Southern California TRACON
12:08AM 33.9017 -118.5064 187° South 193 222 2,800 1,440 Climbing Los Angeles Center
12:09AM 33.8325 -118.5169 183° South 234 269 4,800 2,280 Climbing Los Angeles Center
12:10AM 33.7572 -118.5222 167° South 260 299 7,400 2,460 Climbing Los Angeles Center
12:11AM 33.6844 -118.5028 89° East 273 314 9,800 1,800 Climbing Los Angeles Center
12:12AM 33.6864 -118.4056 72° East 208 239 11,000 1,380 Climbing Los Angeles Center
12:13AM 33.7222 -118.2764 71° East 268 308 12,600 1,800 Climbing Los Angeles Center
12:14AM 33.7556 -118.1600 66° East 318 366 14,600 1,800 Climbing Los Angeles Center
12:15AM 33.7992 -118.0436 39° Northeast 360 414 16,300 1,740 Climbing Los Angeles Center
12:16AM 33.8733 -117.9700 36° Northeast 366 421 18,100 1,620 Climbing Los Angeles Center
12:17AM 33.9664 -117.8894 37° Northeast 382 440 19,600 1,320 Climbing Los Angeles Center
12:18AM 34.0594 -117.8061 45° Northeast 396 456 20,800 1,200 Climbing Los Angeles Center
12:19AM 34.1378 -117.7122 48° Northeast 401 461 22,000 1,080 Climbing Los Angeles Center
12:20AM 34.2186 -117.6033 47° Northeast 406 467 23,000 1,080 Climbing Los Angeles Center
12:21AM 34.3053 -117.4892 47° Northeast 434 499 24,200 1,020 Climbing Los Angeles Center
12:22AM 34.3964 -117.3700 52° Northeast 441 507 25,100 900 Climbing Los Angeles Center
12:23AM 34.4664 -117.2625 50° Northeast 441 507 26,100 1,080 Climbing Los Angeles Center
12:24AM 34.5572 -117.1328 48° Northeast 453 521 27,300 900 Climbing Los Angeles Center
12:25AM 34.6436 -117.0175 48° Northeast 453 521 28,000 900 Climbing Los Angeles Center
12:26AM 34.7322 -116.8972 48° Northeast 458 527 29,100 900 Climbing Los Angeles Center
12:27AM 34.8183 -116.7792 50° Northeast 458 527 29,900 900 Climbing Los Angeles Center
12:28AM 34.9006 -116.6581 48° Northeast 458 527 30,900 900 Climbing Los Angeles Center
12:29AM 34.9864 -116.5422 45° Northeast 458 527 31,700 780 Climbing Los Angeles Center
12:30AM 35.0786 -116.4308 45° Northeast 458 527 32,500 600 Climbing Los Angeles Center
12:31AM 35.1686 -116.3194 46° Northeast 458 527 33,000 240 Climbing Los Angeles Center
12:32AM 35.2583 -116.2053 45° Northeast 453 521 33,000  Level Los Angeles Center
12:33AM 35.3503 -116.0908 46° Northeast 453 521 33,000  Level Los Angeles Center
12:34AM 35.4400 -115.9786 47° Northeast 453 521 33,000  Level Los Angeles Center
12:35AM 35.5275 -115.8636 46° Northeast 453 521 33,000  Level Los Angeles Center
12:36AM 35.6167 -115.7483 46° Northeast 453 521 33,000  Level Los Angeles Center
12:37AM 35.7042 -115.6378 46° Northeast 453 521 33,000  Level Los Angeles Center
12:38AM 35.7975 -115.5194 46° Northeast 459 528 33,000  Level Los Angeles Center
12:39AM 35.8864 -115.4061 47° Northeast 464 534 33,000  Level Los Angeles Center
12:40AM 35.9733 -115.2925 49° Northeast 458 527 33,000  Level Los Angeles Center
12:41AM 36.0581 -115.1733 62° Northeast 458 527 33,000  Level Los Angeles Center
12:42AM 36.1175 -115.0364 69° East 452 520 33,000  Level Los Angeles Center
12:43AM 36.1619 -114.8917 69° East 447 514 33,000  Level Los Angeles Center
12:44AM 36.2044 -114.7572 68° East 452 520 33,000  Level Los Angeles Center
12:45AM 36.2506 -114.6122 71° East 452 520 33,000  Level Los Angeles Center
12:46AM 36.2925 -114.4619 68° East 452 520 33,000  Level Los Angeles Center
12:47AM 36.3383 -114.3194 70° East 452 520 33,000  Level Los Angeles Center
12:48AM 36.3819 -114.1714 70° East 452 520 33,000  Level Los Angeles Center
12:49AM 36.4256 -114.0258 70° East 452 520 33,000  Level Los Angeles Center
12:50AM 36.4689 -113.8800 70° East 452 520 33,000  Level Los Angeles Center
12:51AM 36.5178 -113.7158 71° East 452 520 33,000  Level Los Angeles Center
12:52AM 36.5606 -113.5647 70° East 452 520 33,000  Level Los Angeles Center
12:53AM 36.6033 -113.4158 69° East 452 520 33,000  Level Los Angeles Center
12:54AM 36.6481 -113.2667 70° East 452 520 33,000  Level Los Angeles Center
12:55AM 36.6864 -113.1333 71° East 452 520 33,000  Level Los Angeles Center
12:56AM 36.7286 -112.9842 71° East 452 520 33,000  Level Los Angeles Center
12:57AM 36.7706 -112.8322 70° East 452 520 33,000  Level Los Angeles Center
12:58AM 36.8144 -112.6850 70° East 452 520 33,000  Level Los Angeles Center
12:59AM 36.8581 -112.5353 70° East 452 520 33,000  Level Los Angeles Center
01:00AM 36.9014 -112.3825 71° East 452 520 33,000  Level Los Angeles Center
01:02AM 37.0025 -112.0125 71° East 466 536 33,000  Level Denver Center
01:03AM 37.0453 -111.8569 71° East 466 536 33,000  Level Denver Center
01:04AM 37.0856 -111.7092 70° East 461 531 33,000  Level Denver Center
01:05AM 37.1300 -111.5561 72° East 456 525 33,000  Level Denver Center
01:06AM 37.1628 -111.4308 72° East 456 525 33,000  Level Denver Center
01:07AM 37.2075 -111.2619 71° East 456 525 33,000  Level Denver Center
01:08AM 37.2494 -111.1081 71° East 456 525 33,000  Level Denver Center
01:09AM 37.2908 -110.9569 72° East 451 519 33,000  Level Denver Center
01:10AM 37.3303 -110.8028 71° East 456 525 33,000  Level Denver Center
01:11AM 37.3714 -110.6483 72° East 456 525 33,000  Level Denver Center
01:12AM 37.4106 -110.4939 71° East 456 525 33,000  Level Denver Center
01:13AM 37.4558 -110.3239 70° East 456 525 33,000  Level Denver Center
01:14AM 37.4983 -110.1744 72° East 450 518 33,000  Level Denver Center
01:15AM 37.5342 -110.0375 73° East 455 524 33,000  Level Denver Center
01:16AM 37.5769 -109.8642 72° East 460 529 33,000  Level Denver Center
01:17AM 37.6169 -109.7114 72° East 454 522 33,000  Level Denver Center
01:18AM 37.6567 -109.5558 72° East 454 522 33,000  Level Denver Center
01:19AM 37.6914 -109.4183 72° East 455 524 33,000  Level Denver Center
01:20AM 37.7308 -109.2625 73° East 455 524 33,000  Level Denver Center
01:21AM 37.7725 -109.0908 72° East 455 524 33,000  Level Denver Center
01:22AM 37.8114 -108.9347 66° East 455 524 33,000  Level Denver Center
01:23AM 37.8581 -108.7994 66° East 455 524 33,000  Level Denver Center
01:24AM 37.9111 -108.6514 66° East 462 532 33,000  Level Denver Center
01:25AM 37.9683 -108.4844 66° East 457 526 33,000  Level Denver Center
01:26AM 38.0189 -108.3383 67° East 452 520 33,000  Level Denver Center
01:27AM 38.0647 -108.2025 68° East 464 534 33,000  Level Denver Center
01:28AM 38.1128 -108.0481 66° East 464 534 33,000  Level Denver Center
01:29AM 38.1692 -107.8831 66° East 464 534 33,000  Level Denver Center
01:30AM 38.2211 -107.7308 68° East 464 534 33,000  Level Denver Center
01:31AM 38.2706 -107.5783 66° East 472 543 33,000  Level Denver Center
01:32AM 38.3178 -107.4414 67° East 472 543 33,000  Level Denver Center
01:33AM 38.3711 -107.2781 67° East 467 537 33,000  Level Denver Center
01:34AM 38.4219 -107.1275 72° East 467 537 33,000  Level Denver Center
01:35AM 38.4583 -106.9875 74° East 462 532 33,000  Level Denver Center
01:36AM 38.4922 -106.8311 76° East 457 526 33,000  Level Denver Center
01:37AM 38.5261 -106.6536 75° East 463 533 33,000  Level Denver Center
01:38AM 38.5594 -106.4892 76° East 469 540 33,100  Climbing Denver Center
01:39AM 38.5867 -106.3456 76° East 469 540 33,000 -60 Descending Denver Center
01:40AM 38.6175 -106.1836 75° East 469 540 33,000  Level Denver Center
01:41AM 38.6503 -106.0211 78° East 469 540 33,000  Level Denver Center
01:42AM 38.6767 -105.8642 77° East 464 534 33,000  Level Denver Center
01:43AM 38.7069 -105.7017 75° East 464 534 33,000  Level Denver Center
01:44AM 38.7392 -105.5417 76° East 464 534 33,000  Level Denver Center
01:45AM 38.7692 -105.3814 76° East 459 528 33,000  Level Denver Center
01:46AM 38.8028 -105.2050 78° East 459 528 33,000  Level Denver Center
01:47AM 38.8300 -105.0419 76° East 459 528 33,000  Level Denver Center
01:48AM 38.8611 -104.8786 77° East 459 528 33,000  Level Denver Center
01:49AM 38.8903 -104.7181 77° East 463 533 33,000  Level Denver Center
01:50AM 38.9208 -104.5517 78° East 469 540 33,000  Level Denver Center
01:51AM 38.9472 -104.3881 77° East 469 540 33,000  Level Denver Center
01:52AM 38.9756 -104.2297 76° East 464 534 33,000  Level Denver Center
01:53AM 39.0056 -104.0686 78° East 464 534 33,000  Level Denver Center
01:54AM 39.0333 -103.9044 77° East 464 534 33,000  Level Denver Center
01:55AM 39.0611 -103.7483 78° East 457 526 33,000  Level Denver Center
01:56AM 39.0864 -103.5894 76° East 447 514 33,000  Level Denver Center
01:57AM 39.1156 -103.4331 78° East 447 514 33,000  Level Denver Center
01:58AM 39.1425 -103.2686 79° East 458 527 33,000  Level Denver Center
01:59AM 39.1669 -103.1094 77° East 453 521 33,000  Level Denver Center
02:00AM 39.1919 -102.9661 78° East 453 521 33,000  Level Denver Center
02:01AM 39.2181 -102.8039 79° East 453 521 33,000  Level Denver Center
02:02AM 39.2439 -102.6311 78° East 453 521 33,000  Level Denver Center
02:03AM 39.2697 -102.4714 79° East 453 521 33,000  Level Denver Center
02:04AM 39.2914 -102.3225 77° East 453 521 33,000  Level Denver Center
02:05AM 39.3189 -102.1625 79° East 453 521 33,000  Level Denver Center
02:06AM 39.3453 -101.9781 79° East 461 531 33,000  Level Denver Center
02:07AM 39.3700 -101.8181 77° East 455 524 33,000  Level Denver Center
02:08AM 39.3956 -101.6764 67° East 449 517 33,000  Level Denver Center
02:09AM 39.4489 -101.5114 66° East 450 518 33,000  Level Denver Center
02:10AM 39.4989 -101.3622 67° East 445 512 33,000  Level Denver Center
02:11AM 39.5447 -101.2242 65° Northeast 450 518 33,000  Level Denver Center
02:12AM 39.5964 -101.0800 68° East 450 518 33,000  Level Denver Center
02:13AM 39.6489 -100.9114 67° East 450 518 33,000  Level Denver Center
02:14AM 39.6997 -100.7586 66° East 445 512 33,000  Level Denver Center
02:15AM 39.7453 -100.6281 67° East 440 506 33,000  Level Denver Center
02:16AM 39.7992 -100.4583 66° East 453 521 33,000  Level Denver Center
02:17AM 39.8478 -100.3133 69° East 448 516 33,000  Level Denver Center
02:18AM 39.8919 -100.1658 66° East 443 510 33,000  Level Denver Center
02:19AM 39.9442 -100.0144 69° East 443 510 33,000  Level Denver Center
02:20AM 39.9894 -99.8611 67° East 448 516 33,000  Level Denver Center
02:21AM 40.0392 -99.7069 68° East 448 516 33,000  Level Denver Center
02:23AM 40.1058 -99.4906 68° East 456 525 33,000  Level Minneapolis Center
02:24AM 40.1517 -99.3403 68° East 456 525 33,000  Level Minneapolis Center
02:25AM 40.1969 -99.1925 67° East 449 517 33,000  Level Minneapolis Center
02:26AM 40.2442 -99.0475 67° East 442 509 33,000  Level Minneapolis Center
02:27AM 40.2911 -98.8994 69° East 437 503 33,000  Level Minneapolis Center
02:28AM 40.3361 -98.7483 69° East 437 503 33,000  Level Minneapolis Center
02:29AM 40.3808 -98.5969 68° East 442 509 33,000  Level Minneapolis Center
02:30AM 40.4131 -98.4908 68° East 442 509 33,000  Level Minneapolis Center
02:31AM 40.4814 -98.2700 69° East 458 527 33,000  Level Minneapolis Center
02:32AM 40.5253 -98.1181 69° East 453 521 33,000  Level Minneapolis Center
02:33AM 40.5692 -97.9683 68° East 447 514 33,000  Level Minneapolis Center
02:34AM 40.6147 -97.8189 68° East 447 514 33,000  Level Minneapolis Center
02:35AM 40.6606 -97.6661 68° East 442 509 33,000  Level Minneapolis Center
02:36AM 40.7056 -97.5161 69° East 442 509 33,000  Level Minneapolis Center
02:37AM 40.7486 -97.3686 71° East 442 509 33,000  Level Minneapolis Center
02:38AM 40.7872 -97.2175 70° East 435 501 33,000  Level Minneapolis Center
02:39AM 40.8297 -97.0667 68° East 435 501 33,000  Level Minneapolis Center
02:40AM 40.8742 -96.9214 71° East 435 501 33,000  Level Minneapolis Center
02:41AM 40.9142 -96.7700 78° East 435 501 33,000  Level Minneapolis Center
02:42AM 40.9397 -96.6122 80° East 435 501 33,000  Level Minneapolis Center
02:43AM 40.9608 -96.4514 79° East 441 507 33,000  Level Minneapolis Center
02:44AM 40.9842 -96.2850 79° East 448 516 33,000  Level Minneapolis Center
02:45AM 41.0069 -96.1267 81° East 448 516 33,000  Level Minneapolis Center
02:46AM 41.0272 -95.9628 79° East 448 516 33,000  Level Minneapolis Center
02:47AM 41.0497 -95.8017 81° East 448 516 33,000  Level Minneapolis Center
02:48AM 41.0697 -95.6375 80° East 448 516 33,000  Level Minneapolis Center
02:49AM 41.0917 -95.4761 80° East 448 516 33,000  Level Minneapolis Center
02:50AM 41.1133 -95.3144 80° East 448 516 33,000  Level Minneapolis Center
02:51AM 41.1347 -95.1556 81° East 443 510 33,000  Level Minneapolis Center
02:52AM 41.1536 -94.9908 81° East 443 510 33,000  Level Minneapolis Center
02:53AM 41.1725 -94.8317 80° East 443 510 33,000  Level Minneapolis Center
02:54AM 41.1931 -94.6725 80° East 443 510 33,000  Level Minneapolis Center
02:55AM 41.2136 -94.5103 82° East 443 510 33,000  Level Minneapolis Center
02:56AM 41.2297 -94.3508 81° East 443 510 33,000  Level Minneapolis Center
02:57AM 41.2494 -94.1911 81° East 443 510 33,000  Level Minneapolis Center
02:59AM 41.2917 -93.8247 81° East 443 510 33,000  Level Chicago Center
03:00AM 41.3103 -93.6656 81° East 443 510 33,000  Level Chicago Center
03:01AM 41.3286 -93.5064 82° East 443 510 33,000  Level Chicago Center
03:02AM 41.3447 -93.3497 81° East 438 504 33,000  Level Chicago Center
03:03AM 41.3625 -93.1958 82° East 438 504 33,000  Level Chicago Center
03:04AM 41.3806 -93.0308 81° East 432 497 33,000  Level Chicago Center
03:05AM 41.3978 -92.8794 81° East 431 496 33,000  Level Chicago Center
03:06AM 41.4172 -92.7200 81° East 426 490 33,000  Level Chicago Center
03:07AM 41.4364 -92.5603 82° East 426 490 33,000  Level Chicago Center
03:08AM 41.4531 -92.4031 83° East 426 490 33,000  Level Chicago Center
03:09AM 41.4672 -92.2569 81° East 426 490 33,000  Level Chicago Center
03:10AM 41.4858 -92.0969 81° East 431 496 33,000  Level Chicago Center
03:11AM 41.5042 -91.9342 81° East 436 502 33,000  Level Chicago Center
03:12AM 41.5225 -91.7711 82° East 441 507 33,000  Level Chicago Center
03:13AM 41.5406 -91.6053 82° East 441 507 33,000  Level Chicago Center
03:14AM 41.5581 -91.4394 83° East 447 514 33,000  Level Chicago Center
03:15AM 41.5736 -91.2761 81° East 452 520 33,100  Climbing Chicago Center
03:16AM 41.5928 -91.1158 82° East 445 512 33,000 -60 Descending Chicago Center
03:17AM 41.6097 -90.9522 82° East 439 505 33,000  Level Chicago Center
03:18AM 41.6264 -90.7889 83° East 439 505 33,000  Level Chicago Center
03:19AM 41.6431 -90.6169 82° East 439 505 33,000  Level Chicago Center
03:20AM 41.6572 -90.4728 82° East 434 499 33,000  Level Chicago Center
03:21AM 41.6733 -90.3117 83° East 434 499 33,000  Level Chicago Center
03:22AM 41.6892 -90.1450 83° East 444 511 33,000  Level Chicago Center
03:23AM 41.7047 -89.9756 83° East 449 517 33,000  Level Chicago Center
03:24AM 41.7200 -89.8089 83° East 449 517 33,100  Climbing Chicago Center
03:25AM 41.7353 -89.6447 85° East 449 517 33,000 -60 Descending Chicago Center
03:26AM 41.7481 -89.4611 82° East 444 511 33,000  Level Chicago Center
03:27AM 41.7647 -89.2942 83° East 444 511 33,000  Level Chicago Center
03:28AM 41.7792 -89.1272 84° East 444 511 33,000  Level Chicago Center
03:29AM 41.7933 -88.9572 84° East 444 511 33,000  Level Chicago Center
03:30AM 41.8072 -88.7900 84° East 444 511 33,000  Level Chicago Center
03:31AM 41.8208 -88.6200 84° East 449 517 33,000  Level Chicago Center
03:32AM 41.8342 -88.4497 83° East 449 517 33,000  Level Chicago Center
03:33AM 41.8494 -88.2794 84° East 454 522 33,000  Level Chicago Center
03:34AM 41.8622 -88.1064 84° East 454 522 33,000  Level Chicago Center
03:35AM 41.8750 -87.9389 84° East 459 528 33,000  Level Chicago Center
03:36AM 41.8872 -87.7683 84° East 459 528 33,000  Level Chicago Center
03:37AM 41.8994 -87.5981 85° East 459 528 33,000  Level Chicago Center
03:38AM 41.9111 -87.4275 85° East 459 528 33,000  Level Chicago Center
03:39AM 41.9228 -87.2569 85° East 464 534 33,000  Level Chicago Center
03:40AM 41.9342 -87.0889 84° East 464 534 33,000  Level Chicago Center
03:41AM 41.9475 -86.9211 86° East 464 534 33,000  Level Chicago Center
03:42AM 41.9561 -86.7503 84° East 459 528 33,000  Level Chicago Center
03:43AM 41.9689 -86.5767 84° East 465 535 33,000  Level Chicago Center
03:44AM 41.9814 -86.4083 86° East 457 526 33,000  Level Chicago Center
03:45AM 41.9894 -86.2378 86° East 452 520 33,000  Level Chicago Center
03:46AM 41.9992 -86.0667 85° East 457 526 33,000  Level Chicago Center
03:48AM 42.0158 -85.8133 87° East 462 532 33,000 180 Level Cleveland Center
03:49AM 42.0233 -85.6433 86° East 457 526 33,500 780 Climbing Cleveland Center
03:50AM 42.0336 -85.4567 86° East 457 526 34,600 720 Climbing Cleveland Center
03:51AM 42.0428 -85.2894 87° East 457 526 35,000 180 Climbing Cleveland Center
03:52AM 42.0494 -85.1194 85° East 457 526 35,000  Level Cleveland Center
03:53AM 42.0603 -84.9494 88° East 457 526 35,000  Level Cleveland Center
03:54AM 42.0647 -84.7792 86° East 457 526 35,000  Level Cleveland Center
03:55AM 42.0728 -84.6089 90° East 457 526 35,000  Level Cleveland Center
03:56AM 42.0719 -84.4550 90° East 457 526 35,000  Level Cleveland Center
03:57AM 42.0711 -84.2842 90° East 457 526 35,000  Level Cleveland Center
03:58AM 42.0703 -84.1133 90° East 462 532 35,000  Level Cleveland Center
03:59AM 42.0692 -83.9428 91° East 457 526 35,000  Level Cleveland Center
04:00AM 42.0678 -83.7719 92° East 457 526 35,000  Level Cleveland Center
04:01AM 42.0642 -83.6011 90° East 457 526 35,000  Level Cleveland Center
04:02AM 42.0642 -83.4306 92° East 457 526 35,000  Level Cleveland Center
04:03AM 42.0600 -83.2597 90° East 456 525 35,000 -60 Level Cleveland Center
04:04AM 42.0597 -83.0919 91° East 456 525 34,900  Descending Cleveland Center
04:05AM 42.0569 -82.9211 91° East 459 528 35,000  Climbing Cleveland Center
04:06AM 42.0544 -82.7336 91° East 459 528 35,000  Level Cleveland Center
04:07AM 42.0514 -82.5631 92° East 454 522 35,000  Level Cleveland Center
04:08AM 42.0478 -82.3950 92° East 453 521 35,000  Level Cleveland Center
04:09AM 42.0442 -82.2272 92° East 453 521 35,000  Level Cleveland Center
04:10AM 42.0400 -82.0650 91° East 440 506 35,000  Level Cleveland Center
04:11AM 42.0378 -81.9000 92° East 440 506 35,000  Level Cleveland Center
04:12AM 42.0333 -81.7378 93° East 440 506 35,000  Level Cleveland Center
04:13AM 42.0264 -81.5783 91° East 440 506 35,000  Level Cleveland Center
04:14AM 42.0236 -81.4300 92° East 440 506 35,000  Level Cleveland Center
04:15AM 42.0183 -81.2706 92° East 440 506 35,000  Level Cleveland Center
04:16AM 42.0131 -81.1086 93° East 435 501 35,000  Level Cleveland Center
04:17AM 42.0072 -80.9464 92° East 435 501 35,000  Level Cleveland Center
04:18AM 42.0036 -80.7844 93° East 435 501 35,000  Level Cleveland Center
04:19AM 41.9975 -80.6056 93° East 440 506 35,000  Level Cleveland Center
04:20AM 41.9911 -80.4433 93° East 440 506 35,000  Level Cleveland Center
04:21AM 41.9844 -80.2786 92° East 440 506 35,000  Level Cleveland Center
04:22AM 41.9800 -80.1139 94° East 440 506 35,000  Level Cleveland Center
04:23AM 41.9708 -79.9547 92° East 435 501 35,000  Level Cleveland Center
04:24AM 41.9656 -79.7956 94° East 435 501 35,000  Level Cleveland Center
04:25AM 41.9581 -79.6339 93° East 435 501 35,000  Level Cleveland Center
04:26AM 41.9506 -79.4692 93° East 435 501 35,000  Level Cleveland Center
04:27AM 41.9444 -79.3075 94° East 435 501 35,000  Level Cleveland Center
04:28AM 41.9364 -79.1428 95° East 435 501 35,000  Level Cleveland Center
04:29AM 41.9258 -78.9811 93° East 435 501 35,000  Level Cleveland Center
04:30AM 41.9194 -78.8167 94° East 440 506 35,000  Level Cleveland Center
04:31AM 41.9106 -78.6553 94° East 440 506 35,000  Level Cleveland Center
04:32AM 41.9014 -78.4908 93° East 440 506 35,000  Level Cleveland Center
04:33AM 41.8942 -78.3292 96° East 440 506 35,000  Level Cleveland Center
04:34AM 41.8825 -78.1706 94° East 440 506 35,000  Level Cleveland Center
04:35AM 41.8722 -77.9658 99° East 433 498 35,000  Level New York Center
04:36AM 41.8525 -77.8078 110° East 428 493 35,000  Level New York Center
04:37AM 41.8131 -77.6617 109° East 421 484 35,000  Level New York Center
04:38AM 41.7758 -77.5131 110° East 416 479 35,000  Level New York Center
04:39AM 41.7361 -77.3672 110° East 416 479 35,000  Level New York Center
04:40AM 41.6961 -77.2217 109° East 421 484 35,000  Level New York Center
04:41AM 41.6581 -77.0764 110° East 415 478 35,000  Level New York Center
04:42AM 41.6144 -76.9139 111° Southeast 420 483 35,000  Level New York Center
04:43AM 41.5719 -76.7686 110° East 420 483 35,000  Level New York Center
04:44AM 41.5333 -76.6239 110° East 420 483 35,000  Level New York Center
04:45AM 41.5017 -76.5047 111° Southeast 420 483 35,000  Level New York Center
04:46AM 41.4553 -76.3403 109° East 420 483 35,000  Level New York Center
04:47AM 41.4164 -76.1903 111° Southeast 425 489 35,000  Level New York Center
04:48AM 41.3731 -76.0431 111° Southeast 425 489 35,000 -360 Level New York Center
04:49AM 41.3261 -75.8819 111° Southeast 420 483 34,300 -6,000 Descending New York Center
04:50AM 41.2825 -75.7294 113° Southeast 426 490 23,000 -2,400 Descending New York Center
04:51AM 41.2419 -75.5997 114° Southeast 426 490 29,500 2,340 Climbing New York Center
04:52AM 41.1975 -75.4642 115° Southeast 412 474 27,800 -1,680 Descending New York Center
04:53AM 41.1525 -75.3342 114° Southeast 393 452 26,200 -1,620 Descending New York Center
04:54AM 41.1133 -75.2158 114° Southeast 379 436 24,600 -1,560 Descending New York Center
04:55AM 41.0722 -75.0922 114° Southeast 368 423 23,100 -840 Descending New York Center
04:56AM 41.0231 -74.9486 109° East 368 423 23,000 -60 Descending New York Center
04:57AM 40.9883 -74.8119 98° East 379 436 23,000  Level New York Center
04:58AM 40.9725 -74.6625 98° East 393 452 23,000 -840 Level New York Center
04:59AM 40.9564 -74.5133 98° East 399 459 21,400 -1,500 Descending New York Center
05:00AM 40.9422 -74.3725 95° East 399 459 20,000 -1,020 Descending New York Center
05:01AM 40.9333 -74.2500 127° Southeast 392 451 19,500 -600 Descending New York TRACON
05:02AM 40.8667 -74.1333 137° Southeast 357 411 18,900 -1,740 Descending New York TRACON
05:03AM 40.8000 -74.0500 137° Southeast 345 397 16,100 -2,700 Descending New York TRACON
05:04AM 40.7333 -73.9667 119° Southeast 333 383 13,600 -2,760 Descending New York TRACON
05:05AM 40.6833 -73.8500 118° Southeast 319 367 10,400 -1,920 Descending New York TRACON
05:06AM 40.6500 -73.7667 150° Southeast 262 302 9,600 -2,040 Descending New York TRACON
05:07AM 40.5833 -73.7167 169° South 236 272 6,400 -2,280 Descending New York TRACON
05:08AM 40.5167 -73.7000 180° South 233 268 5,100 -720 Descending New York TRACON
05:09AM 40.4667 -73.7000 194° South 202 232 5,000 -180 Descending New York TRACON
05:10AM 40.4167 -73.7167 229° Southwest 197 227 4,800 -720 Descending New York TRACON
05:11AM 40.3833 -73.7667 270° West 215 247 3,700 -900 Descending New York TRACON
05:12AM 40.3833 -73.8333 303° West 217 250 3,000 -540 Descending New York TRACON
05:13AM 40.4167 -73.9000 360° North 213 245 2,700 -540 Descending New York TRACON
05:14AM 40.4667 -73.9000 37° Northeast 212 244 2,000 -360 Descending New York TRACON
05:15AM 40.5167 -73.8500 27° Northeast 208 239 2,000 -300 Level New York TRACON
05:16AM 40.5667 -73.8167 27° Northeast 205 236 1,400 -780 Descending New York TRACON
05:17AM 40.6167 -73.7833 27° Northeast 151 174 400 -960 Descending New York TRACON